.
WxDataArchive / Data Records for 2013-11-12
2013-11-11 November 2013 2013-11-13

Data Records for Tuesday, 12 November 2013

Time	Temp	Chill	HIndex	Humid	Dewpt	 Wind 	HiWind	WindDir	Rain 	Barom 
-----	----	-----	------	-----	-----	------	------	-------	-----	----- 
00:00	28.1	28.1	28.1	72	20.3	0	4	292	0.00	30.357 
00:05	28.1	28.1	28.1	72	20.3	0	2	292	0.00	30.357 
00:10	27.9	27.9	27.9	73	20.4	0	1	292	0.00	30.357 
00:15	27.9	27.9	27.9	72	20.1	0	3	45	0.00	30.360 
00:20	27.8	27.8	27.8	72	20.0	0	2	45	0.00	30.360 
00:25	27.8	27.8	27.8	72	20.0	0	2	68	0.00	30.360 
00:30	27.6	27.6	27.6	71	19.4	0	1	68	0.00	30.366 
00:35	27.6	27.6	27.6	71	19.4	0	3	22	0.00	30.366 
00:40	27.6	27.6	27.6	70	19.1	0	2	22	0.00	30.366 
00:45	27.6	27.6	27.6	70	19.1	0	2	22	0.00	30.369 
00:50	27.5	27.5	27.5	70	19.0	0	1	22	0.00	30.369 
00:55	27.5	27.5	27.5	70	19.0	0	1	22	0.00	30.369 
01:00	27.3	27.3	27.3	70	18.8	0	1	22	0.00	30.373 
01:05	27.5	27.5	27.5	69	18.7	0	2	22	0.00	30.373 
01:10	27.3	27.3	27.3	69	18.5	0	3	22	0.00	30.373 
01:15	27.3	27.3	27.3	69	18.5	0	3	22	0.00	30.377 
01:20	27.3	27.3	27.3	69	18.5	0	3	22	0.00	30.377 
01:25	27.3	27.3	27.3	68	18.2	0	2	22	0.00	30.377 
01:30	27.3	27.3	27.3	68	18.2	0	2	22	0.00	30.381 
01:35	27.2	27.2	27.2	68	18.1	0	1	22	0.00	30.381 
01:40	27.0	27.0	27.0	69	18.2	0	3	22	0.00	30.381 
01:45	27.0	27.0	27.0	68	17.9	0	1	0	0.00	30.391 
01:50	27.0	27.0	27.0	68	17.9	0	1	0	0.00	30.391 
01:55	26.9	26.9	26.9	68	17.8	0	2	0	0.00	30.391 
02:00	26.9	26.9	26.9	69	18.1	0	1	0	0.00	30.393 
02:05	26.7	26.7	26.7	68	17.6	0	1	0	0.00	30.393 
02:10	26.7	26.7	26.7	68	17.6	0	1	0	0.00	30.393 
02:15	26.6	26.6	26.6	68	17.5	0	1	0	0.00	30.395 
02:20	26.4	26.4	26.4	69	17.6	0	2	0	0.00	30.395 
02:25	26.3	26.3	26.3	69	17.5	0	1	0	0.00	30.395 
02:30	26.1	26.1	26.1	69	17.3	0	1	0	0.00	30.400 
02:35	26.0	26.0	26.0	70	17.6	0	1	0	0.00	30.400 
02:40	25.7	25.7	25.7	70	17.3	0	1	0	0.00	30.400 
02:45	25.6	25.6	25.6	71	17.5	0	1	0	0.00	30.409 
02:50	25.3	25.3	25.3	72	17.6	0	1	0	0.00	30.409 
02:55	25.3	25.3	25.3	72	17.6	0	1	0	0.00	30.409 
03:00	25.1	25.1	25.1	72	17.4	0	1	0	0.00	30.412 
03:05	25.0	25.0	25.0	73	17.6	0	1	0	0.00	30.412 
03:10	25.0	25.0	25.0	73	17.6	0	1	0	0.00	30.412 
03:15	24.8	24.8	24.8	73	17.4	0	1	0	0.00	30.425 
03:20	24.8	24.8	24.8	73	17.4	0	2	0	0.00	30.425 
03:25	24.8	24.8	24.8	73	17.4	0	1	0	0.00	30.425 
03:30	24.7	24.7	24.7	74	17.6	0	1	0	0.00	30.429 
03:35	24.5	24.5	24.5	74	17.4	0	1	0	0.00	30.429 
03:40	24.4	24.4	24.4	74	17.3	0	1	0	0.00	30.429 
03:45	24.4	24.4	24.4	74	17.3	0	1	0	0.00	30.432 
03:50	24.4	24.4	24.4	75	17.6	0	1	0	0.00	30.432 
03:55	24.2	24.2	24.2	75	17.4	0	1	0	0.00	30.432 
04:00	24.2	24.2	24.2	75	17.4	0	1	0	0.00	30.438 
04:05	24.2	24.2	24.2	76	17.7	0	1	0	0.00	30.438 
04:10	24.2	24.2	24.2	76	17.7	0	1	0	0.00	30.438 
04:15	24.2	24.2	24.2	76	17.7	0	1	0	0.00	30.449 
04:20	24.1	24.1	24.1	76	17.7	0	0	---	0.00	30.449 
04:25	23.9	23.9	23.9	76	17.5	0	1	0	0.00	30.449 
04:30	23.8	23.8	23.8	77	17.7	0	0	---	0.00	30.455 
04:35	23.8	23.8	23.8	77	17.7	0	1	0	0.00	30.455 
04:40	23.6	23.6	23.6	77	17.5	0	1	0	0.00	30.455 
04:45	23.6	23.6	23.6	78	17.8	0	1	0	0.00	30.461 
04:50	23.6	23.6	23.6	78	17.8	0	1	0	0.00	30.461 
04:55	23.6	23.6	23.6	78	17.8	0	1	0	0.00	30.461 
05:00	23.5	23.5	23.5	78	17.7	0	1	0	0.00	30.466 
05:05	23.5	23.5	23.5	79	18.0	0	1	0	0.00	30.466 
05:10	23.3	23.3	23.3	79	17.8	0	1	0	0.00	30.466 
05:15	23.3	23.3	23.3	79	17.8	0	1	0	0.00	30.474 
05:20	23.2	23.2	23.2	79	17.7	0	0	---	0.00	30.474 
05:25	23.2	23.2	23.2	79	17.7	0	0	---	0.00	30.474 
05:30	23.0	23.0	23.0	80	17.8	0	1	0	0.00	30.482 
05:35	23.0	23.0	23.0	80	17.8	0	1	0	0.00	30.482 
05:40	22.9	22.9	22.9	80	17.7	0	1	0	0.00	30.482 
05:45	22.9	22.9	22.9	80	17.7	0	0	---	0.00	30.485 
05:50	22.7	22.7	22.7	80	17.5	0	0	---	0.00	30.485 
05:55	22.5	22.5	22.5	81	17.6	0	0	---	0.00	30.485 
06:00	22.4	22.4	22.4	81	17.5	0	0	---	0.00	30.491 
06:05	22.2	22.2	22.2	81	17.3	0	1	0	0.00	30.491 
06:10	22.4	22.4	22.4	81	17.5	0	1	0	0.00	30.491 
06:15	22.2	22.2	22.2	81	17.3	0	0	---	0.00	30.501 
06:20	22.2	22.2	22.2	82	17.6	0	0	---	0.00	30.501 
06:25	22.1	22.1	22.1	82	17.5	0	0	---	0.00	30.501 
06:30	21.9	21.9	21.9	82	17.3	0	0	---	0.00	30.504 
06:35	21.8	21.8	21.8	82	17.2	0	0	---	0.00	30.504 
06:40	21.8	21.8	21.8	82	17.2	0	0	---	0.00	30.504 
06:45	21.8	21.8	21.8	83	17.4	0	0	---	0.00	30.510 
06:50	21.8	21.8	21.8	83	17.4	0	1	0	0.00	30.510 
06:55	21.8	21.8	21.8	83	17.4	0	1	0	0.00	30.510 
07:00	21.8	21.8	21.8	83	17.4	0	0	---	0.00	30.519 
07:05	21.8	21.8	21.8	83	17.4	0	1	0	0.00	30.519 
07:10	21.8	21.8	21.8	83	17.4	0	1	0	0.00	30.519 
07:15	21.9	21.9	21.9	83	17.5	0	1	0	0.00	30.536 
07:20	21.9	21.9	21.9	83	17.5	0	1	0	0.00	30.536 
07:25	21.9	21.9	21.9	83	17.5	0	1	0	0.00	30.536 
07:30	21.9	21.9	21.9	83	17.5	0	1	0	0.00	30.543 
07:35	21.8	21.8	21.8	83	17.4	0	0	---	0.00	30.543 
07:40	21.9	21.9	21.9	83	17.5	0	1	0	0.00	30.543 
07:45	21.9	21.9	21.9	83	17.5	0	1	0	0.00	30.550 
07:50	22.1	22.1	22.1	83	17.7	0	1	0	0.00	30.550 
07:55	22.1	22.1	22.1	83	17.7	0	1	0	0.00	30.550 
08:00	22.4	22.4	22.4	83	18.0	0	1	0	0.00	30.555 
08:05	22.5	22.5	22.5	83	18.1	0	1	0	0.00	30.555 
08:10	22.9	22.9	22.9	83	18.5	0	2	0	0.00	30.555 
08:15	23.2	23.2	23.2	82	18.5	0	2	0	0.00	30.560 
08:20	23.5	23.5	23.5	82	18.8	1	2	0	0.00	30.560 
08:25	23.8	23.8	23.8	81	18.8	0	2	0	0.00	30.560 
08:30	24.1	24.1	24.1	81	19.1	1	3	0	0.00	30.563 
08:35	24.4	24.4	24.4	80	19.1	1	4	338	0.00	30.563 
08:40	24.7	24.7	24.7	80	19.4	1	4	338	0.00	30.563 
08:45	24.8	24.8	24.8	79	19.2	1	4	338	0.00	30.562 
08:50	25.0	25.0	25.0	79	19.4	1	4	338	0.00	30.562 
08:55	25.3	25.3	25.3	78	19.4	1	3	338	0.00	30.562 
09:00	25.6	25.6	25.6	78	19.7	1	3	338	0.00	30.567 
09:05	25.8	25.8	25.8	77	19.6	1	5	338	0.00	30.567 
09:10	26.3	26.3	26.3	77	20.1	1	3	338	0.00	30.567 
09:15	26.6	26.6	26.6	76	20.1	1	3	338	0.00	30.572 
09:20	26.9	26.9	26.9	75	20.1	1	4	338	0.00	30.572 
09:25	27.2	27.2	27.2	75	20.3	1	4	0	0.00	30.572 
09:30	27.5	27.5	27.5	74	20.3	1	5	338	0.00	30.579 
09:35	27.8	27.8	27.8	74	20.6	2	4	315	0.00	30.579 
09:40	28.1	28.1	28.1	73	20.6	1	3	292	0.00	30.579 
09:45	28.4	28.4	28.4	72	20.5	1	3	338	0.00	30.581 
09:50	28.4	28.4	28.4	72	20.5	1	3	338	0.00	30.581 
09:55	28.7	28.7	28.7	72	20.8	1	5	90	0.00	30.581 
10:00	28.7	28.7	28.7	71	20.5	1	5	0	0.01	30.583 
10:05	29.0	29.0	29.0	72	21.1	0	1	315	0.00	30.583 
10:10	29.1	29.1	29.1	71	20.9	1	4	112	0.00	30.583 
10:15	29.3	29.3	29.3	70	20.8	1	3	22	0.00	30.584 
10:20	29.3	29.3	29.3	70	20.8	1	4	338	0.00	30.584 
10:25	29.5	29.5	29.5	70	20.9	1	4	338	0.00	30.584 
10:30	29.7	29.7	29.7	70	21.1	0	2	338	0.00	30.589 
10:35	30.0	30.0	30.0	68	20.7	2	4	315	0.00	30.589 
10:40	30.0	30.0	30.0	67	20.4	2	6	338	0.00	30.589 
10:45	30.3	30.3	30.3	67	20.7	1	5	315	0.00	30.595 
10:50	30.6	30.6	30.6	68	21.3	0	3	315	0.00	30.595 
10:55	30.7	30.7	30.7	67	21.1	1	3	315	0.00	30.595 
11:00	31.0	31.0	31.0	66	21.0	1	3	315	0.00	30.597 
11:05	31.3	31.3	31.3	65	20.9	1	3	315	0.00	30.597 
11:10	31.6	31.6	31.6	66	21.6	1	3	315	0.00	30.597 
11:15	31.6	31.6	31.6	64	20.8	2	5	338	0.00	30.601 
11:20	31.6	31.6	31.6	64	20.8	2	6	315	0.00	30.601 
11:25	31.8	31.8	31.8	65	21.4	1	5	338	0.00	30.601 
11:30	32.2	32.2	32.2	65	21.8	1	3	270	0.00	30.597 
11:35	32.4	32.4	32.4	64	21.6	1	4	270	0.00	30.597 
11:40	32.5	32.5	32.5	64	21.7	1	4	315	0.00	30.597 
11:45	32.8	32.8	32.8	63	21.6	1	7	112	0.00	30.595 
11:50	32.8	32.8	32.8	62	21.2	1	4	315	0.00	30.595 
11:55	32.8	32.8	32.8	62	21.2	1	3	338	0.00	30.595 
12:00	33.1	33.1	33.1	62	21.5	1	4	338	0.00	30.594 
12:05	33.2	33.2	33.2	60	20.8	1	3	315	0.00	30.594 
12:10	33.4	33.4	33.4	62	21.8	1	4	292	0.00	30.594 
12:15	33.5	33.5	33.5	62	21.9	0	3	112	0.00	30.591 
12:20	33.2	33.2	33.2	61	21.2	1	3	338	0.00	30.591 
12:25	33.1	33.1	33.1	62	21.5	1	4	338	0.00	30.591 
12:30	33.5	33.5	33.5	61	21.5	1	4	0	0.00	30.587 
12:35	33.5	33.5	33.5	60	21.1	0	3	315	0.00	30.587 
12:40	34.0	34.0	34.0	60	21.6	0	4	292	0.00	30.587 
12:45	33.8	33.8	33.8	59	21.0	0	3	292	0.00	30.581 
12:50	33.8	33.8	33.8	59	21.0	2	5	315	0.00	30.581 
12:55	33.8	33.8	33.8	58	20.6	1	3	338	0.00	30.581 
13:00	34.0	34.0	34.0	58	20.8	1	4	292	0.00	30.579 
13:05	34.6	34.6	34.6	58	21.4	1	4	338	0.00	30.579 
13:10	34.0	34.0	34.0	55	19.6	2	5	338	0.00	30.579 
13:15	33.5	33.5	33.5	56	19.5	0	4	0	0.00	30.579 
13:20	33.4	33.4	33.4	58	20.2	0	3	0	0.00	30.579 
13:25	33.4	33.4	33.4	57	19.8	1	3	315	0.00	30.579 
13:30	33.4	33.4	33.4	58	20.2	1	3	315	0.00	30.580 
13:35	33.7	33.7	33.7	59	20.9	1	3	315	0.00	30.580 
13:40	33.5	33.5	33.5	58	20.3	0	2	315	0.00	30.580 
13:45	33.4	33.4	33.4	58	20.2	0	3	0	0.00	30.580 
13:50	33.4	33.4	33.4	59	20.6	0	3	0	0.00	30.580 
13:55	33.4	33.4	33.4	60	21.0	1	3	315	0.00	30.580 
14:00	33.4	33.4	33.4	58	20.2	1	3	315	0.00	30.579 
14:05	33.5	33.5	33.5	58	20.3	1	3	315	0.00	30.579 
14:10	33.5	33.5	33.5	56	19.5	0	3	315	0.00	30.579 
14:15	33.5	33.5	33.5	56	19.5	1	5	338	0.00	30.581 
14:20	33.5	33.5	33.5	56	19.5	1	3	338	0.00	30.581 
14:25	33.7	33.7	33.7	57	20.1	1	3	338	0.00	30.581 
14:30	33.7	33.7	33.7	57	20.1	0	2	338	0.00	30.582 
14:35	33.7	33.7	33.7	56	19.7	1	3	338	0.00	30.582 
14:40	33.7	33.7	33.7	57	20.1	1	3	338	0.00	30.582 
14:45	33.8	33.8	33.8	57	20.2	1	3	338	0.00	30.582 
14:50	33.8	33.8	33.8	57	20.2	2	5	338	0.00	30.582 
14:55	33.8	33.8	33.8	56	19.8	2	4	315	0.00	30.582 
15:00	33.7	33.7	33.7	57	20.1	1	5	315	0.00	30.585 
15:05	33.5	33.5	33.5	57	19.9	2	5	315	0.00	30.585 
15:10	33.5	33.5	33.5	58	20.3	2	5	0	0.00	30.585 
15:15	33.5	33.5	33.5	58	20.3	1	5	292	0.00	30.585 
15:20	33.5	33.5	33.5	58	20.3	1	5	315	0.00	30.585 
15:25	33.5	33.5	33.5	57	19.9	3	6	315	0.00	30.585 
15:30	33.4	33.4	33.4	57	19.8	3	7	315	0.00	30.587 
15:35	33.4	33.4	33.4	58	20.2	2	6	0	0.00	30.587 
15:40	33.2	33.2	33.2	59	20.4	2	7	338	0.00	30.587 
15:45	33.4	33.4	33.4	60	21.0	1	4	315	0.00	30.586 
15:50	33.4	33.4	33.4	60	21.0	1	3	315	0.00	30.586 
15:55	33.4	33.4	33.4	58	20.2	2	5	292	0.00	30.586 
16:00	33.2	33.2	33.2	58	20.0	2	5	315	0.00	30.587 
16:05	33.1	33.1	33.1	58	20.0	2	5	270	0.00	30.587 
16:10	33.1	33.1	33.1	59	20.4	3	6	338	0.00	30.587 
16:15	32.9	32.9	32.9	59	20.2	3	10	338	0.00	30.586 
16:20	32.8	32.8	32.8	60	20.5	2	5	315	0.00	30.586 
16:25	32.8	32.8	32.8	62	21.2	1	4	315	0.00	30.586 
16:30	32.8	32.8	32.8	63	21.6	0	2	338	0.00	30.592 
16:35	32.9	32.9	32.9	62	21.3	1	5	338	0.00	30.592 
16:40	32.9	32.9	32.9	62	21.3	1	3	270	0.00	30.592 
16:45	32.8	32.8	32.8	61	20.9	1	4	0	0.00	30.590 
16:50	32.7	32.7	32.7	61	20.8	1	4	338	0.00	30.590 
16:55	32.7	32.7	32.7	61	20.8	1	3	338	0.00	30.590 
17:00	32.5	32.5	32.5	61	20.6	1	5	292	0.00	30.592 
17:05	32.5	32.5	32.5	61	20.6	2	5	315	0.00	30.592 
17:10	32.2	32.2	32.2	60	19.9	1	4	292	0.00	30.592 
17:15	32.1	32.1	32.1	61	20.2	1	3	292	0.00	30.590 
17:20	31.8	31.8	31.8	62	20.3	0	3	292	0.00	30.590 
17:25	31.6	31.6	31.6	62	20.1	0	1	292	0.00	30.590 
17:30	31.5	31.5	31.5	63	20.4	0	3	292	0.00	30.586 
17:35	31.3	31.3	31.3	63	20.2	1	3	292	0.00	30.586 
17:40	31.3	31.3	31.3	65	20.9	0	2	315	0.00	30.586 
17:45	31.5	31.5	31.5	64	20.7	1	4	292	0.00	30.583 
17:50	31.5	31.5	31.5	65	21.1	0	2	292	0.00	30.583 
17:55	31.6	31.6	31.6	67	21.9	1	5	292	0.00	30.583 
18:00	31.5	31.5	31.5	69	22.5	1	6	315	0.00	30.584 
18:05	31.2	31.2	31.2	70	22.6	2	5	315	0.00	30.584 
18:10	31.0	31.0	31.0	70	22.4	1	5	292	0.00	30.584 
18:15	30.7	30.7	30.7	68	21.4	2	4	270	0.00	30.587 
18:20	30.7	30.7	30.7	68	21.4	2	6	270	0.00	30.587 
18:25	30.4	30.4	30.4	67	20.8	2	5	270	0.00	30.587 
18:30	30.3	30.3	30.3	66	20.3	1	4	292	0.00	30.591 
18:35	30.1	30.1	30.1	67	20.5	1	4	292	0.00	30.591 
18:40	30.0	30.0	30.0	67	20.4	1	4	292	0.00	30.591 
18:45	29.8	29.8	29.8	67	20.2	1	3	292	0.00	30.592 
18:50	29.7	29.7	29.7	67	20.1	1	3	292	0.00	30.592 
18:55	29.7	29.7	29.7	67	20.1	1	4	292	0.00	30.592 
19:00	29.7	29.7	29.7	67	20.1	1	4	292	0.00	30.597 
19:05	29.5	29.5	29.5	67	19.9	0	1	292	0.00	30.597 
19:10	29.4	29.4	29.4	68	20.2	0	2	292	0.00	30.597 
19:15	29.3	29.3	29.3	69	20.4	0	2	292	0.00	30.605 
19:20	29.3	29.3	29.3	70	20.8	1	3	292	0.00	30.605 
19:25	29.1	29.1	29.1	70	20.6	0	2	292	0.00	30.605 
19:30	29.0	29.0	29.0	71	20.8	0	2	292	0.00	30.607 
19:35	29.0	29.0	29.0	70	20.5	0	2	292	0.00	30.607 
19:40	28.8	28.8	28.8	69	19.9	1	3	292	0.00	30.607 
19:45	28.8	28.8	28.8	69	19.9	0	3	292	0.00	30.616 
19:50	28.8	28.8	28.8	69	19.9	1	3	292	0.00	30.616 
19:55	28.7	28.7	28.7	69	19.8	0	2	292	0.00	30.616 
20:00	28.5	28.5	28.5	69	19.6	1	3	292	0.00	30.620 
20:05	28.5	28.5	28.5	69	19.6	1	2	292	0.00	30.620 
20:10	28.5	28.5	28.5	68	19.3	0	3	292	0.00	30.620 
20:15	28.4	28.4	28.4	68	19.2	0	2	292	0.00	30.615 
20:20	28.4	28.4	28.4	68	19.2	1	4	292	0.00	30.615 
20:25	28.2	28.2	28.2	69	19.4	0	2	292	0.00	30.615 
20:30	28.1	28.1	28.1	69	19.3	0	3	292	0.00	30.610 
20:35	27.9	27.9	27.9	70	19.4	0	2	292	0.00	30.610 
20:40	27.8	27.8	27.8	70	19.3	0	2	292	0.00	30.610 
20:45	27.8	27.8	27.8	70	19.3	0	2	292	0.00	30.609 
20:50	27.6	27.6	27.6	70	19.1	0	3	292	0.00	30.609 
20:55	27.5	27.5	27.5	69	18.7	0	2	292	0.00	30.609 
21:00	27.5	27.5	27.5	69	18.7	0	1	292	0.00	30.606 
21:05	27.3	27.3	27.3	69	18.5	0	1	292	0.00	30.606 
21:10	27.2	27.2	27.2	69	18.4	0	2	292	0.00	30.606 
21:15	27.2	27.2	27.2	69	18.4	0	1	292	0.00	30.604 
21:20	27.0	27.0	27.0	69	18.2	0	2	292	0.00	30.604 
21:25	27.0	27.0	27.0	69	18.2	0	1	292	0.00	30.604 
21:30	26.9	26.9	26.9	69	18.1	0	1	292	0.00	30.607 
21:35	26.7	26.7	26.7	70	18.3	0	0	---	0.00	30.607 
21:40	26.6	26.6	26.6	70	18.2	0	0	---	0.00	30.607 
21:45	26.4	26.4	26.4	70	18.0	0	1	292	0.00	30.605 
21:50	26.3	26.3	26.3	69	17.5	0	1	292	0.00	30.605 
21:55	26.3	26.3	26.3	69	17.5	0	1	292	0.00	30.605 
22:00	26.1	26.1	26.1	69	17.3	0	1	292	0.00	30.605 
22:05	26.1	26.1	26.1	69	17.3	0	1	292	0.00	30.605 
22:10	26.1	26.1	26.1	69	17.3	0	1	292	0.00	30.605 
22:15	26.1	26.1	26.1	69	17.3	0	1	292	0.00	30.602 
22:20	26.0	26.0	26.0	69	17.2	0	1	292	0.00	30.602 
22:25	26.0	26.0	26.0	69	17.2	0	1	292	0.00	30.602 
22:30	26.0	26.0	26.0	68	16.9	0	1	292	0.00	30.602 
22:35	26.0	26.0	26.0	68	16.9	0	1	292	0.00	30.602 
22:40	26.0	26.0	26.0	68	16.9	0	1	292	0.00	30.602 
22:45	25.8	25.8	25.8	68	16.7	0	1	292	0.00	30.600 
22:50	25.8	25.8	25.8	67	16.4	0	1	292	0.00	30.600 
22:55	25.8	25.8	25.8	67	16.4	0	2	292	0.00	30.600 
23:00	25.8	25.8	25.8	67	16.4	0	1	292	0.00	30.596 
23:05	25.8	25.8	25.8	67	16.4	0	1	292	0.00	30.596 
23:10	25.7	25.7	25.7	68	16.6	0	1	292	0.00	30.596 
23:15	25.7	25.7	25.7	68	16.6	0	1	292	0.00	30.589 
23:20	25.7	25.7	25.7	68	16.6	0	2	292	0.00	30.589 
23:25	25.7	25.7	25.7	68	16.6	0	1	292	0.00	30.589 
23:30	25.6	25.6	25.6	68	16.5	0	2	292	0.00	30.586 
23:35	25.6	25.6	25.6	68	16.5	0	2	292	0.00	30.586 
23:40	25.6	25.6	25.6	68	16.5	0	3	292	0.00	30.586 
23:45	25.6	25.6	25.6	68	16.5	0	1	292	0.00	30.587 
23:50	25.6	25.6	25.6	68	16.5	0	1	292	0.00	30.587 
23:55	25.6	25.6	25.6	69	16.9	0	1	292	0.00	30.587 

CoCoRaHS
IN-AL-39
A2 Web Hosting
Creative Commons License
GoDaddy
search engine by freefind advanced

loaded 2018-11-16 23:28:06 • last modified 2010-11-18 10:43:29
Privacy PolicyDisclaimer
• wx.awcolley.com is powered by PmWiki v.2002016 •
• all content (unless otherwise noted) © 2018 A W Colley